Time;durP1;ratioP1;P1;durP2;ratioP2;P2;SDS_P1;SDS_P2;PMS_P1;PMS_P2;Temp;Humidity;BMP_temperature;BMP_pressure;BME280_temperature;BME280_humidity;BME280_pressure;Samples;Min_cycle;Max_cycle;Signal;HPM_P1;HPM_P2
2022/04/26 03:36:18;;;;;;;15.73;6.53;;;7.10;99.90;;;;;;5004909;28;20493;-57
2022/04/26 03:38:47;;;;;;;13.98;6.05;;;7.10;99.90;;;;;;5007008;28;20046;-58
2022/04/26 03:41:13;;;;;;;18.85;7.05;;;7.10;99.90;;;;;;5006063;28;20034;-58
2022/04/26 03:43:39;;;;;;;16.48;5.97;;;7.10;99.90;;;;;;5005723;28;20030;-58
2022/04/26 03:46:05;;;;;;;14.15;6.40;;;7.10;99.90;;;;;;4990982;28;20068;-59
2022/04/26 03:48:31;;;;;;;10.95;4.82;;;7.10;99.90;;;;;;4991318;28;20034;-58
2022/04/26 03:50:58;;;;;;;15.52;7.80;;;7.00;99.90;;;;;;4990514;28;20049;-58
2022/04/26 03:53:24;;;;;;;15.35;5.72;;;7.10;99.90;;;;;;4992172;28;20056;-57
2022/04/26 03:55:49;;;;;;;18.85;7.40;;;7.00;99.90;;;;;;5005581;28;20132;-58
2022/04/26 03:58:15;;;;;;;12.35;5.72;;;7.00;99.90;;;;;;5001666;28;20061;-58
2022/04/26 04:00:41;;;;;;;17.58;6.47;;;7.00;99.90;;;;;;5000608;28;20455;-57
2022/04/26 04:03:06;;;;;;;15.63;6.53;;;7.00;99.90;;;;;;5006089;28;20050;-58
2022/04/26 04:05:33;;;;;;;13.75;6.53;;;7.00;99.90;;;;;;5006837;28;20042;-58
2022/04/26 04:07:58;;;;;;;14.40;6.13;;;7.00;99.90;;;;;;5009474;28;20087;-55
2022/04/26 04:10:24;;;;;;;9.90;5.18;;;7.00;99.90;;;;;;5012303;28;20067;-59
2022/04/26 04:12:50;;;;;;;20.17;7.05;;;7.00;99.90;;;;;;5005542;28;20061;-57
2022/04/26 04:15:16;;;;;;;16.13;7.07;;;7.00;99.90;;;;;;4998257;28;20046;-59
2022/04/26 04:17:41;;;;;;;19.45;6.38;;;7.00;99.90;;;;;;4990809;28;20049;-59
2022/04/26 04:20:08;;;;;;;10.80;4.88;;;6.90;99.90;;;;;;5010932;28;20046;-59
2022/04/26 04:22:34;;;;;;;16.75;5.97;;;6.90;99.90;;;;;;4990410;28;20049;-59
2022/04/26 04:24:59;;;;;;;16.33;5.72;;;6.90;99.90;;;;;;5009296;28;20046;-59
2022/04/26 04:27:25;;;;;;;11.80;4.93;;;6.90;99.90;;;;;;5010907;28;20050;-59
2022/04/26 04:29:51;;;;;;;11.13;5.35;;;6.90;99.90;;;;;;5008348;28;20075;-59
2022/04/26 04:32:17;;;;;;;12.48;5.65;;;7.00;99.90;;;;;;5005688;28;20041;-59
2022/04/26 04:34:43;;;;;;;9.32;5.10;;;6.90;99.90;;;;;;5012719;28;20463;-58
2022/04/26 04:37:09;;;;;;;13.25;5.32;;;7.00;99.90;;;;;;5011294;28;20212;-59
2022/04/26 04:39:36;;;;;;;16.63;6.65;;;7.00;99.90;;;;;;5010347;28;20057;-59
2022/04/26 04:42:02;;;;;;;11.50;5.88;;;7.00;99.90;;;;;;5011069;28;20450;-59
2022/04/26 04:44:28;;;;;;;18.65;7.13;;;7.00;99.90;;;;;;5008836;28;20050;-58
2022/04/26 04:46:59;;;;;;;11.25;4.88;;;6.90;99.90;;;;;;4998553;28;20041;-59
2022/04/26 04:49:25;;;;;;;18.58;7.25;;;6.90;99.90;;;;;;5013265;28;20109;-60
2022/04/26 04:51:51;;;;;;;13.50;6.18;;;6.90;99.90;;;;;;5010747;28;20133;-59
2022/04/26 04:54:16;;;;;;;13.35;6.45;;;6.90;99.90;;;;;;5010059;28;20052;-58
2022/04/26 04:56:42;;;;;;;24.02;8.15;;;7.00;99.90;;;;;;5010908;28;20048;-57
2022/04/26 04:59:08;;;;;;;16.10;6.30;;;7.00;99.90;;;;;;5010400;28;20069;-59
2022/04/26 05:01:33;;;;;;;14.65;5.75;;;7.00;99.90;;;;;;5007993;28;20452;-60
2022/04/26 05:03:59;;;;;;;13.10;5.90;;;7.00;99.90;;;;;;5014265;28;20042;-59
2022/04/26 05:06:25;;;;;;;13.25;5.85;;;7.10;99.90;;;;;;5010580;28;20485;-59
2022/04/26 05:08:50;;;;;;;13.18;5.03;;;7.10;99.90;;;;;;4993383;28;20042;-60
2022/04/26 05:11:16;;;;;;;9.30;5.38;;;7.20;99.90;;;;;;5010569;28;20054;-60
2022/04/26 05:13:42;;;;;;;14.38;6.15;;;7.20;99.90;;;;;;4988769;28;20473;-57
2022/04/26 05:16:08;;;;;;;11.70;5.03;;;7.20;99.90;;;;;;5010763;28;20041;-58
2022/04/26 05:18:34;;;;;;;18.15;5.95;;;7.20;99.90;;;;;;5011162;28;20046;-59
2022/04/26 05:20:59;;;;;;;13.05;6.15;;;7.30;99.90;;;;;;5010036;28;20041;-58
2022/04/26 05:26:09;;;;;;;11.27;5.35;;;7.40;99.90;;;;;;4990544;28;20109;-60
2022/04/26 05:28:35;;;;;;;15.40;6.15;;;7.50;99.90;;;;;;4992252;28;20492;-59
2022/04/26 05:31:01;;;;;;;19.95;6.25;;;7.50;99.90;;;;;;5006047;28;20058;-59
2022/04/26 05:33:29;;;;;;;12.88;5.35;;;7.60;99.90;;;;;;5002275;28;20460;-59
2022/04/26 05:35:55;;;;;;;19.15;6.93;;;7.60;99.90;;;;;;5009376;28;20045;-59
2022/04/26 05:38:21;;;;;;;15.88;6.18;;;7.70;99.90;;;;;;4995550;28;20224;-58
2022/04/26 05:40:48;;;;;;;17.95;6.22;;;7.70;99.90;;;;;;5009123;28;20459;-57
2022/04/26 05:43:14;;;;;;;14.73;6.18;;;7.70;99.90;;;;;;5009484;28;20042;-59
2022/04/26 05:45:39;;;;;;;10.73;5.05;;;7.80;99.90;;;;;;5004757;28;20401;-59
2022/04/26 05:48:05;;;;;;;9.80;5.22;;;7.80;99.90;;;;;;5009857;28;20041;-60
2022/04/26 05:50:31;;;;;;;12.57;5.10;;;7.90;99.90;;;;;;5008097;28;20035;-60
2022/04/26 05:52:57;;;;;;;8.48;5.15;;;8.00;99.90;;;;;;5009005;28;20045;-61
2022/04/26 05:55:22;;;;;;;11.10;5.88;;;8.00;99.90;;;;;;5010495;28;20041;-59
2022/04/26 05:57:48;;;;;;;14.70;6.53;;;8.00;99.90;;;;;;5010442;28;20070;-59
2022/04/26 06:00:15;;;;;;;11.73;6.00;;;8.10;99.90;;;;;;5013207;28;20080;-57
2022/04/26 06:02:41;;;;;;;12.93;5.15;;;8.10;99.90;;;;;;5008454;28;20805;-58
2022/04/26 06:05:07;;;;;;;15.13;6.63;;;8.20;99.90;;;;;;5005246;28;20062;-59
2022/04/26 06:07:33;;;;;;;14.55;5.72;;;8.30;99.90;;;;;;5004542;28;20034;-59
2022/04/26 06:09:59;;;;;;;13.65;6.40;;;8.40;99.90;;;;;;5005969;28;20068;-59
2022/04/26 06:12:28;;;;;;;15.40;7.13;;;8.50;99.90;;;;;;5008352;28;20050;-59
2022/04/26 06:14:55;;;;;;;13.00;7.07;;;8.50;99.90;;;;;;5026313;28;20092;-57
2022/04/26 06:17:21;;;;;;;13.38;6.43;;;8.50;99.90;;;;;;5007964;28;20125;-58
2022/04/26 06:19:47;;;;;;;11.88;5.97;;;8.50;99.90;;;;;;5008508;28;20511;-58
2022/04/26 06:22:13;;;;;;;9.45;6.13;;;8.50;99.90;;;;;;5007178;28;20397;-57
2022/04/26 06:24:38;;;;;;;12.85;5.75;;;8.50;99.90;;;;;;4992597;28;20052;-56
2022/04/26 06:27:04;;;;;;;17.83;6.25;;;8.50;99.90;;;;;;5008811;28;20042;-59
2022/04/26 06:29:30;;;;;;;12.65;5.03;;;8.50;99.90;;;;;;5006541;28;20396;-59
2022/04/26 06:31:56;;;;;;;10.85;6.20;;;8.40;99.90;;;;;;5009744;28;20038;-59
2022/04/26 06:34:22;;;;;;;11.45;5.72;;;8.40;99.90;;;;;;5008867;28;20973;-59
2022/04/26 06:36:48;;;;;;;12.95;5.65;;;8.50;99.90;;;;;;5004250;28;20413;-59
2022/04/26 06:39:13;;;;;;;10.52;5.05;;;8.50;99.90;;;;;;5007643;28;20081;-58
2022/04/26 06:41:39;;;;;;;12.00;4.93;;;8.60;99.90;;;;;;4996332;28;20064;-58
2022/04/26 06:44:05;;;;;;;9.63;4.75;;;8.70;99.90;;;;;;5003334;28;20030;-59
2022/04/26 06:46:31;;;;;;;9.68;4.70;;;8.80;99.90;;;;;;5007211;28;20603;-58
2022/04/26 06:49:00;;;;;;;13.15;4.85;;;8.90;99.90;;;;;;5003697;28;20481;-59
2022/04/26 06:51:26;;;;;;;8.95;4.45;;;9.00;99.90;;;;;;4992223;28;20128;-57
2022/04/26 06:53:52;;;;;;;12.55;4.70;;;9.10;99.90;;;;;;4993107;28;20140;-58
2022/04/26 06:56:18;;;;;;;13.45;4.40;;;9.20;99.90;;;;;;5011274;28;20037;-57
2022/04/26 06:58:43;;;;;;;10.50;4.55;;;9.40;99.90;;;;;;5007484;28;20042;-58
2022/04/26 07:01:09;;;;;;;8.93;4.47;;;9.50;99.90;;;;;;4975328;28;20038;-59
2022/04/26 07:03:35;;;;;;;10.40;4.15;;;9.60;99.90;;;;;;5007598;28;20053;-59
2022/04/26 07:06:01;;;;;;;13.40;4.63;;;9.70;99.90;;;;;;4991446;28;20481;-56
2022/04/26 07:08:26;;;;;;;10.32;4.10;;;9.70;99.90;;;;;;4985390;28;20046;-58
2022/04/26 07:10:52;;;;;;;8.02;3.63;;;9.70;99.90;;;;;;5011887;28;20056;-58
2022/04/26 07:13:22;;;;;;;8.70;4.13;;;9.80;99.90;;;;;;4991791;28;20045;-58
2022/04/26 07:15:48;;;;;;;8.43;4.15;;;9.90;99.90;;;;;;5007766;28;20038;-59
2022/04/26 07:18:14;;;;;;;6.70;3.80;;;9.90;99.90;;;;;;5007138;28;20049;-57
2022/04/26 07:20:40;;;;;;;7.35;3.75;;;10.00;99.90;;;;;;5006120;28;20064;-59
2022/04/26 07:23:07;;;;;;;8.50;3.75;;;10.20;99.90;;;;;;5008186;28;20053;-59
2022/04/26 07:25:33;;;;;;;13.07;3.45;;;10.30;99.90;;;;;;5006031;28;20045;-59
2022/04/26 07:27:59;;;;;;;8.98;4.00;;;10.40;99.90;;;;;;5001453;28;20045;-58
2022/04/26 07:30:34;;;;;;;10.07;4.22;;;10.40;99.90;;;;;;5007570;28;20053;-57
2022/04/26 07:35:50;;;;;;;8.52;3.33;;;10.60;99.90;;;;;;5007853;28;20042;-58
2022/04/26 07:38:16;;;;;;;7.82;3.88;;;10.70;99.90;;;;;;5004934;28;20587;-58
2022/04/26 07:40:42;;;;;;;6.53;3.08;;;10.80;99.90;;;;;;5007094;28;20037;-59
2022/04/26 07:43:08;;;;;;;7.30;3.30;;;10.90;99.90;;;;;;5008106;28;20058;-56
2022/04/26 07:45:38;;;;;;;12.50;4.15;;;11.00;99.90;;;;;;5007960;28;20049;-57
2022/04/26 07:48:06;;;;;;;9.35;3.92;;;11.20;99.40;;;;;;5008665;28;20048;-59
2022/04/26 07:50:33;;;;;;;6.65;2.80;;;11.20;99.50;;;;;;5008846;28;20042;-55
2022/04/26 07:53:00;;;;;;;8.20;2.75;;;11.30;99.20;;;;;;5008471;28;20116;-58
2022/04/26 07:55:27;;;;;;;6.43;2.80;;;11.30;98.40;;;;;;4990415;28;20041;-57
2022/04/26 07:57:53;;;;;;;10.18;3.42;;;11.30;97.90;;;;;;5010733;28;20038;-58
2022/04/26 08:00:19;;;;;;;8.00;3.33;;;11.30;97.70;;;;;;5011352;28;20418;-58
2022/04/26 08:02:45;;;;;;;6.30;3.00;;;11.40;98.10;;;;;;5012048;28;20092;-58
2022/04/26 08:05:11;;;;;;;6.05;2.40;;;11.50;98.00;;;;;;5012123;28;20069;-57
2022/04/26 08:07:41;;;;;;;8.57;3.25;;;11.70;97.50;;;;;;5011003;28;20088;-58
2022/04/26 08:10:11;;;;;;;9.40;2.80;;;11.80;97.00;;;;;;4986146;28;20046;-59
2022/04/26 08:12:38;;;;;;;11.68;3.22;;;11.90;96.80;;;;;;4996371;28;20096;-59
2022/04/26 08:15:04;;;;;;;11.02;2.85;;;12.10;96.50;;;;;;5009442;28;20049;-58
2022/04/26 08:17:30;;;;;;;7.50;2.25;;;12.10;96.10;;;;;;5014669;23;20037;-55
2022/04/26 08:19:56;;;;;;;7.40;2.90;;;12.10;96.00;;;;;;5031092;28;20451;-54
2022/04/26 08:22:22;;;;;;;6.75;2.50;;;12.10;94.70;;;;;;5034649;28;20148;-56
2022/04/26 08:27:51;;;;;;;6.28;2.67;;;11.90;95.10;;;;;;5012449;28;20072;-54
2022/04/26 08:30:17;;;;;;;8.35;2.80;;;11.90;95.10;;;;;;5012967;28;20045;-57
2022/04/26 08:32:45;;;;;;;9.60;2.60;;;12.00;95.40;;;;;;5019242;28;20360;-58
2022/04/26 08:35:14;;;;;;;10.13;2.88;;;12.20;95.40;;;;;;5030811;28;20046;-57
2022/04/26 08:37:40;;;;;;;8.57;2.70;;;12.50;95.50;;;;;;5030034;28;20041;-59
2022/04/26 08:40:07;;;;;;;4.97;2.30;;;12.50;94.30;;;;;;5027359;28;20049;-54
2022/04/26 08:42:46;;;;;;;5.10;2.50;;;12.30;92.70;;;;;;5030020;28;20081;-56
2022/04/26 08:45:14;;;;;;;5.65;3.03;;;12.10;92.80;;;;;;5034415;28;20041;-56
2022/04/26 08:53:17;;;;;;;9.30;3.00;;;11.50;93.30;;;;;;5029289;28;20472;-56
2022/04/26 08:55:45;;;;;;;5.82;2.47;;;11.50;93.40;;;;;;5013504;28;20049;-55
2022/04/26 08:58:13;;;;;;;5.65;2.80;;;11.60;93.40;;;;;;5028401;28;20458;-55
2022/04/26 09:00:59;;;;;;;11.70;3.42;;;11.80;93.90;;;;;;5014082;28;20041;-53
2022/04/26 09:03:30;;;;;;;6.50;2.63;;;12.20;93.80;;;;;;5010695;28;20045;-59
2022/04/26 09:06:25;;;;;;;6.80;2.83;;;12.50;92.70;;;;;;5013550;28;20037;-56
2022/04/26 09:09:24;;;;;;;9.90;3.42;;;12.70;92.20;;;;;;4991910;28;20045;-54
2022/04/26 09:11:49;;;;;;;6.78;2.78;;;13.00;92.20;;;;;;5027239;28;20057;-55
2022/04/26 09:14:30;;;;;;;8.30;3.28;;;13.20;92.20;;;;;;5031836;28;20091;-54
2022/04/26 09:17:07;;;;;;;6.63;2.55;;;13.30;90.40;;;;;;5030261;28;20046;-53
2022/04/26 09:19:55;;;;;;;8.20;2.53;;;13.20;91.00;;;;;;5029238;28;20496;-55
2022/04/26 09:22:25;;;;;;;5.32;2.53;;;13.30;89.50;;;;;;5025519;28;20052;-56
2022/04/26 09:24:57;;;;;;;9.75;2.90;;;13.30;90.50;;;;;;5031500;28;20045;-54
2022/04/26 09:27:23;;;;;;;5.53;2.40;;;13.60;90.90;;;;;;5018089;28;20072;-54
2022/04/26 09:29:49;;;;;;;7.63;3.03;;;13.70;90.70;;;;;;5013553;28;20041;-54
2022/04/26 09:32:16;;;;;;;6.63;2.65;;;13.70;90.10;;;;;;5024897;28;20053;-56
2022/04/26 09:34:42;;;;;;;7.28;2.70;;;13.70;88.20;;;;;;5026290;28;20711;-57
2022/04/26 09:37:08;;;;;;;6.50;2.72;;;13.70;88.40;;;;;;5020121;28;20691;-59
2022/04/26 09:39:34;;;;;;;7.30;2.53;;;13.70;89.20;;;;;;5026771;28;20046;-59
2022/04/26 09:42:00;;;;;;;6.30;3.00;;;13.50;88.60;;;;;;5010108;28;20053;-58
2022/04/26 09:44:31;;;;;;;8.07;3.08;;;13.20;87.80;;;;;;5028492;28;20029;-59
2022/04/26 09:46:58;;;;;;;7.95;2.88;;;13.20;88.40;;;;;;5030436;28;20042;-60
2022/04/26 09:49:25;;;;;;;6.00;2.42;;;13.40;88.00;;;;;;5027253;28;20066;-59
2022/04/26 09:51:58;;;;;;;7.13;2.53;;;13.60;89.30;;;;;;5028986;28;20099;-59
2022/04/26 09:54:24;;;;;;;8.48;3.05;;;13.90;87.80;;;;;;5028989;28;20048;-59
2022/04/26 09:56:50;;;;;;;6.13;2.35;;;13.80;87.40;;;;;;5029453;28;20037;-59
2022/04/26 09:59:30;;;;;;;5.47;2.65;;;13.50;84.50;;;;;;5030444;28;20073;-60
2022/04/26 10:01:58;;;;;;;6.30;2.70;;;13.40;85.10;;;;;;4989689;28;20045;-59
2022/04/26 10:04:26;;;;;;;4.70;2.75;;;13.40;86.80;;;;;;5021962;28;20124;-59
2022/04/26 10:06:59;;;;;;;5.32;2.67;;;13.40;85.30;;;;;;5025871;28;20100;-57
2022/04/26 10:09:26;;;;;;;6.05;2.60;;;13.40;86.50;;;;;;5025264;28;20454;-59
2022/04/26 10:12:00;;;;;;;9.45;2.53;;;13.50;86.40;;;;;;5013166;28;20396;-60
2022/04/26 10:14:29;;;;;;;5.70;2.67;;;13.70;85.60;;;;;;5013640;28;20056;-60
2022/04/26 10:16:56;;;;;;;5.50;2.55;;;13.80;84.80;;;;;;5029105;28;20044;-59
2022/04/26 10:19:39;;;;;;;7.35;2.45;;;13.80;82.40;;;;;;5028990;28;20045;-60
2022/04/26 10:22:05;;;;;;;9.20;2.80;;;13.40;80.80;;;;;;5031961;28;20499;-60
2022/04/26 10:24:31;;;;;;;5.68;2.83;;;13.30;82.50;;;;;;5022579;28;20073;-59
2022/04/26 10:27:23;;;;;;;6.32;2.38;;;13.50;83.90;;;;;;5026726;28;20087;-60
2022/04/26 10:29:49;;;;;;;5.88;2.78;;;13.90;81.10;;;;;;5029182;28;20075;-58
2022/04/26 10:32:34;;;;;;;7.82;2.28;;;14.10;80.80;;;;;;5022174;28;20500;-59
2022/04/26 10:35:25;;;;;;;7.07;2.80;;;14.10;78.60;;;;;;5028624;28;20411;-59
2022/04/26 10:38:17;;;;;;;4.47;2.13;;;14.20;79.40;;;;;;5007591;28;20184;-60
2022/04/26 10:41:02;;;;;;;5.80;2.55;;;14.40;78.00;;;;;;5001032;28;20505;-60
2022/04/26 10:43:27;;;;;;;5.38;2.25;;;14.70;80.00;;;;;;5025909;28;20056;-59
2022/04/26 10:46:13;;;;;;;4.85;2.30;;;15.00;78.30;;;;;;5017334;28;20041;-60
2022/04/26 10:48:39;;;;;;;5.88;2.38;;;15.00;75.10;;;;;;5007380;28;20099;-59
2022/04/26 10:51:33;;;;;;;5.07;2.30;;;15.00;76.60;;;;;;5025211;28;20041;-60
2022/04/26 10:54:00;;;;;;;5.82;2.33;;;14.90;72.40;;;;;;5006476;28;20041;-60
2022/04/26 10:56:26;;;;;;;6.03;2.42;;;14.90;77.00;;;;;;5006141;28;20096;-59
2022/04/26 10:58:52;;;;;;;4.68;2.70;;;14.90;77.10;;;;;;5024939;28;20448;-58
2022/04/26 11:01:24;;;;;;;5.38;2.63;;;14.80;75.40;;;;;;5027188;28;20053;-60
2022/04/26 11:03:55;;;;;;;5.10;2.72;;;14.80;76.40;;;;;;4995598;28;20073;-59
2022/04/26 11:06:39;;;;;;;5.20;2.42;;;15.00;77.90;;;;;;5024311;28;20060;-60
2022/04/26 11:09:12;;;;;;;;;;;15.40;77.50;;;;;;5024848;28;20128;-59
2022/04/26 11:11:54;;;;;;;5.35;2.40;;;15.40;73.80;;;;;;5018954;28;19925;-59
2022/04/26 11:14:21;;;;;;;4.88;2.25;;;14.60;69.70;;;;;;5025305;28;20037;-60
2022/04/26 11:16:58;;;;;;;7.28;2.20;;;14.60;74.40;;;;;;5025098;28;20041;-58
2022/04/26 11:19:32;;;;;;;5.57;2.60;;;15.00;75.90;;;;;;5010412;28;20072;-60
2022/04/26 11:22:04;;;;;;;;;;;14.40;71.80;;;;;;5029105;28;20080;-59
2022/04/26 11:30:04;;;;;;;6.70;3.33;;;15.10;76.50;;;;;;5024237;28;20052;-59
2022/04/26 11:32:35;;;;;;;5.95;2.88;;;14.60;71.60;;;;;;5025543;28;20050;-59
2022/04/26 11:35:01;;;;;;;5.20;2.67;;;14.40;72.90;;;;;;5028968;28;20041;-59
2022/04/26 11:37:27;;;;;;;3.50;2.60;;;14.60;74.00;;;;;;5024029;28;20029;-61
2022/04/26 11:39:53;;;;;;;5.63;2.20;;;14.90;73.40;;;;;;5007977;28;20042;-61
2022/04/26 11:42:20;;;;;;;5.30;2.70;;;14.80;72.80;;;;;;5009912;28;20059;-61
2022/04/26 11:44:56;;;;;;;5.15;2.45;;;14.60;70.50;;;;;;5008761;28;20424;-60
2022/04/26 11:47:39;;;;;;;11.80;2.30;;;14.60;71.90;;;;;;5006181;28;20099;-60
2022/04/26 11:50:17;;;;;;;5.22;2.40;;;14.80;70.20;;;;;;4989785;28;20050;-60
2022/04/26 11:52:44;;;;;;;5.28;2.33;;;15.00;72.10;;;;;;5006550;28;20049;-60
2022/04/26 11:55:24;;;;;;;8.23;2.47;;;15.50;74.30;;;;;;5003109;28;20033;-60
2022/04/26 11:57:51;;;;;;;4.95;2.35;;;15.80;72.40;;;;;;5001544;28;20515;-60
2022/04/26 12:00:21;;;;;;;6.65;2.35;;;15.70;71.60;;;;;;5000611;28;20121;-60
2022/04/26 12:02:48;;;;;;;5.07;2.83;;;15.40;70.10;;;;;;5016756;28;20041;-60
2022/04/26 12:05:23;;;;;;;6.43;2.50;;;14.70;68.80;;;;;;5024875;28;20049;-61
2022/04/26 12:07:50;;;;;;;5.95;2.60;;;14.10;69.10;;;;;;5012667;28;20192;-60
2022/04/26 12:10:33;;;;;;;4.07;2.53;;;14.00;72.50;;;;;;5006102;28;20072;-57
2022/04/26 12:13:05;;;;;;;5.72;2.53;;;14.20;71.30;;;;;;4996972;28;20091;-57
2022/04/26 12:15:33;;;;;;;7.13;2.72;;;14.60;72.20;;;;;;5011194;28;20041;-58
2022/04/26 12:18:13;;;;;;;7.78;2.80;;;14.80;71.10;;;;;;5015777;28;20046;-58
2022/04/26 12:20:58;;;;;;;5.60;2.40;;;14.70;71.70;;;;;;5011215;28;20034;-59
2022/04/26 12:23:24;;;;;;;5.45;2.53;;;14.80;69.30;;;;;;5018459;28;20038;-59
2022/04/26 12:25:56;;;;;;;5.75;2.60;;;14.50;71.40;;;;;;5023609;28;20071;-59
2022/04/26 12:28:23;;;;;;;3.92;2.65;;;14.40;71.40;;;;;;5025906;28;20378;-58
2022/04/26 12:30:49;;;;;;;5.72;2.55;;;14.50;72.70;;;;;;5009254;28;20602;-59
2022/04/26 12:33:30;;;;;;;5.20;2.65;;;14.80;73.40;;;;;;5002480;28;20117;-58
2022/04/26 12:36:04;;;;;;;10.85;3.55;;;15.20;72.90;;;;;;5024168;28;20087;-59
2022/04/26 12:38:31;;;;;;;3.85;2.60;;;14.80;69.70;;;;;;5002388;28;20377;-58
2022/04/26 12:41:05;;;;;;;5.40;2.35;;;14.20;71.20;;;;;;5017172;28;20038;-58
2022/04/26 12:43:32;;;;;;;6.32;2.90;;;14.10;72.60;;;;;;5020727;28;20049;-58
2022/04/26 12:46:03;;;;;;;6.68;2.88;;;14.30;73.10;;;;;;5015305;28;20050;-58
2022/04/26 12:51:22;;;;;;;4.60;2.63;;;15.20;72.60;;;;;;5022269;28;20479;-58
2022/04/26 12:53:50;;;;;;;5.97;2.72;;;15.60;71.40;;;;;;5000909;28;20038;-59
2022/04/26 12:56:17;;;;;;;4.45;2.60;;;15.30;69.30;;;;;;5022186;28;20072;-57
2022/04/26 12:58:48;;;;;;;5.40;2.70;;;15.20;69.40;;;;;;5023807;28;20049;-59
2022/04/26 13:01:15;;;;;;;7.07;2.83;;;14.80;69.50;;;;;;5028273;28;20041;-59
2022/04/26 13:03:42;;;;;;;7.28;2.85;;;14.40;69.60;;;;;;5026995;28;20099;-59
2022/04/26 13:06:13;;;;;;;5.75;2.83;;;14.00;69.60;;;;;;5005600;28;20088;-59
2022/04/26 13:08:42;;;;;;;7.13;2.80;;;13.90;71.50;;;;;;5028517;28;20076;-59
2022/04/26 13:11:09;;;;;;;6.32;2.40;;;13.90;72.70;;;;;;5026265;28;20444;-59
2022/04/26 13:13:36;;;;;;;6.18;2.50;;;13.80;72.60;;;;;;5028247;28;20099;-58
2022/04/26 13:16:02;;;;;;;8.57;2.67;;;13.90;72.30;;;;;;5016759;28;20047;-59
2022/04/26 13:18:28;;;;;;;7.00;2.55;;;13.80;72.50;;;;;;5019726;28;20049;-58
2022/04/26 13:20:58;;;;;;;5.63;2.63;;;13.90;73.10;;;;;;5027191;28;20042;-59
2022/04/26 13:23:25;;;;;;;6.18;2.40;;;13.80;73.00;;;;;;5016374;28;20408;-59
2022/04/26 13:25:52;;;;;;;5.53;2.45;;;13.70;72.30;;;;;;5020294;28;20119;-59
2022/04/26 13:28:18;;;;;;;7.00;2.85;;;13.50;72.10;;;;;;5015903;28;20299;-59
2022/04/26 13:30:44;;;;;;;5.35;2.28;;;13.30;71.10;;;;;;5025086;28;20563;-59
2022/04/26 13:33:10;;;;;;;6.70;2.80;;;13.30;71.90;;;;;;5024800;28;20042;-59
2022/04/26 13:35:40;;;;;;;5.72;2.95;;;13.40;72.20;;;;;;5011340;28;20073;-57
2022/04/26 13:38:07;;;;;;;6.05;2.92;;;13.50;73.30;;;;;;5024741;28;20100;-58
2022/04/26 13:40:34;;;;;;;5.85;2.80;;;13.70;74.70;;;;;;5019065;28;20076;-59
2022/04/26 13:42:59;;;;;;;7.97;3.25;;;13.70;73.10;;;;;;5024980;28;20087;-59
2022/04/26 13:45:25;;;;;;;6.05;3.45;;;13.60;73.50;;;;;;5003417;28;20053;-59
2022/04/26 13:47:52;;;;;;;5.70;3.05;;;13.50;74.60;;;;;;5026029;28;20515;-58
2022/04/26 13:50:18;;;;;;;5.20;3.03;;;13.50;75.50;;;;;;4990267;28;20128;-56
2022/04/26 13:52:44;;;;;;;6.25;3.10;;;13.50;75.00;;;;;;5011235;28;20042;-57
2022/04/26 13:55:11;;;;;;;12.63;3.22;;;13.50;76.10;;;;;;5025269;28;20091;-58
2022/04/26 13:57:39;;;;;;;8.38;3.35;;;13.60;77.00;;;;;;5024303;28;20048;-57
2022/04/26 14:00:05;;;;;;;6.82;2.80;;;13.90;77.10;;;;;;5001770;28;20100;-59
2022/04/26 14:02:31;;;;;;;5.55;2.85;;;13.80;75.00;;;;;;5022257;28;20064;-57
2022/04/26 14:04:57;;;;;;;8.45;3.33;;;13.70;75.30;;;;;;5028571;28;20083;-57
2022/04/26 14:07:23;;;;;;;9.93;3.28;;;13.60;75.30;;;;;;5026676;28;20064;-61
2022/04/26 14:09:49;;;;;;;11.45;3.00;;;13.50;76.60;;;;;;5018358;28;20071;-60
2022/04/26 14:12:18;;;;;;;10.00;2.92;;;13.60;76.30;;;;;;4999722;28;20050;-60
2022/04/26 14:22:56;;;;;;;6.07;2.65;;;13.90;75.40;;;;;;5015632;28;20452;-56
2022/04/26 14:25:22;;;;;;;10.23;2.78;;;14.20;76.20;;;;;;5017654;28;20045;-56
2022/04/26 14:27:49;;;;;;;5.25;2.50;;;14.40;74.90;;;;;;5011510;28;20392;-61
2022/04/26 14:30:15;;;;;;;6.82;2.85;;;14.60;74.30;;;;;;4981913;28;20044;-56
2022/04/26 14:32:41;;;;;;;10.68;2.97;;;14.60;72.70;;;;;;5019150;28;20053;-60
2022/04/26 14:35:08;;;;;;;5.13;2.78;;;14.70;72.30;;;;;;5026197;28;20405;-60
2022/04/26 14:37:34;;;;;;;9.38;3.90;;;14.60;71.20;;;;;;5003447;28;20546;-61
2022/04/26 14:40:00;;;;;;;6.20;3.10;;;14.60;72.00;;;;;;5020369;28;20045;-58
2022/04/26 14:42:28;;;;;;;5.72;2.60;;;14.30;70.70;;;;;;5019236;28;20052;-58
2022/04/26 14:44:55;;;;;;;4.25;2.40;;;14.10;72.00;;;;;;5003928;28;20041;-58
2022/04/26 14:47:21;;;;;;;5.28;3.22;;;14.00;72.40;;;;;;5012347;28;20045;-61
2022/04/26 14:49:49;;;;;;;7.80;3.42;;;13.80;71.60;;;;;;5016555;28;20049;-59
2022/04/26 14:52:21;;;;;;;7.65;2.65;;;13.60;72.60;;;;;;5019011;28;20220;-56
2022/04/26 14:54:47;;;;;;;5.53;2.65;;;13.60;73.10;;;;;;5002347;28;20041;-58
2022/04/26 14:57:17;;;;;;;7.13;2.67;;;13.50;73.20;;;;;;5017762;28;20530;-55
2022/04/26 14:59:46;;;;;;;4.53;2.88;;;13.40;72.90;;;;;;5014333;28;20069;-57
2022/04/26 15:02:17;;;;;;;7.35;2.92;;;13.30;73.10;;;;;;5017443;28;20077;-56
2022/04/26 15:04:46;;;;;;;4.68;2.22;;;13.20;72.00;;;;;;5010547;28;20049;-57
2022/04/26 15:07:12;;;;;;;5.10;2.45;;;13.20;73.00;;;;;;4994573;28;20395;-63
2022/04/26 15:09:44;;;;;;;4.05;2.28;;;13.20;73.30;;;;;;5016756;28;20486;-59
2022/04/26 15:17:41;;;;;;;5.28;2.20;;;13.40;72.60;;;;;;5013618;28;20452;-58
2022/04/26 15:20:08;;;;;;;4.60;2.17;;;13.50;73.00;;;;;;5015689;28;20037;-56
2022/04/26 15:22:37;;;;;;;6.03;2.60;;;13.60;72.70;;;;;;5009355;28;20392;-56
2022/04/26 15:25:07;;;;;;;5.35;2.42;;;13.60;71.20;;;;;;5011979;28;20060;-55
2022/04/26 15:27:34;;;;;;;5.28;2.30;;;13.40;71.50;;;;;;5007531;28;20038;-61
2022/04/26 15:30:01;;;;;;;4.88;2.35;;;13.40;71.50;;;;;;5024578;28;20340;-59
2022/04/26 15:32:27;;;;;;;5.95;2.15;;;13.40;70.20;;;;;;5016704;28;20045;-58
2022/04/26 15:34:53;;;;;;;8.60;2.50;;;13.30;70.30;;;;;;4998172;28;20038;-56
2022/04/26 15:37:19;;;;;;;6.40;2.05;;;13.30;69.10;;;;;;5021776;28;20045;-55
2022/04/26 15:39:47;;;;;;;4.80;2.10;;;13.10;69.20;;;;;;5008466;28;20044;-55
2022/04/26 15:42:14;;;;;;;5.88;2.25;;;13.00;69.40;;;;;;5024403;28;20081;-59
2022/04/26 15:44:40;;;;;;;6.45;2.50;;;12.90;70.10;;;;;;5023424;28;20087;-55
2022/04/26 15:47:06;;;;;;;3.92;2.08;;;12.80;70.00;;;;;;5021831;28;20073;-59
2022/04/26 15:49:32;;;;;;;5.30;2.65;;;12.70;69.60;;;;;;5008098;28;20528;-56
2022/04/26 15:51:58;;;;;;;10.15;2.38;;;12.60;70.10;;;;;;5012062;28;20143;-56
2022/04/26 15:54:26;;;;;;;3.35;2.50;;;12.50;71.10;;;;;;5015206;28;20041;-59
2022/04/26 15:56:52;;;;;;;5.55;2.35;;;12.50;71.90;;;;;;5011389;28;20061;-58
2022/04/26 15:59:18;;;;;;;4.18;2.70;;;12.30;71.70;;;;;;5015100;28;20080;-56
2022/04/26 16:01:43;;;;;;;4.03;1.92;;;12.20;73.00;;;;;;5002372;28;20080;-59
2022/04/26 16:04:09;;;;;;;7.60;2.85;;;12.30;73.10;;;;;;5023509;28;20041;-58
2022/04/26 16:06:39;;;;;;;5.18;2.15;;;12.20;73.40;;;;;;5008622;28;20038;-58
2022/04/26 16:22:48;;;;;;;;;;;12.50;71.70;;;;;;5004428;28;19921;-61
2022/04/26 16:25:15;;;;;;;4.85;2.20;;;12.50;71.30;;;;;;5009449;28;20009;-58
2022/04/26 16:27:41;;;;;;;6.03;2.17;;;12.40;71.90;;;;;;5000592;28;20124;-59
2022/04/26 16:30:09;;;;;;;4.95;2.28;;;12.50;72.10;;;;;;5012363;28;20042;-58
2022/04/26 16:32:35;;;;;;;4.07;1.95;;;12.60;72.00;;;;;;5008689;28;20128;-59
2022/04/26 16:35:00;;;;;;;5.60;2.50;;;12.50;72.30;;;;;;5015825;28;20512;-58
2022/04/26 16:37:26;;;;;;;6.20;2.13;;;12.50;72.00;;;;;;5010022;28;20034;-57
2022/04/26 16:39:52;;;;;;;6.00;2.22;;;12.50;71.70;;;;;;5006779;28;20053;-59
2022/04/26 16:42:18;;;;;;;6.95;2.20;;;12.40;71.70;;;;;;5002788;28;20811;-59
2022/04/26 16:44:44;;;;;;;5.82;2.45;;;12.20;72.50;;;;;;4998041;28;20080;-57
2022/04/26 16:47:10;;;;;;;8.55;2.60;;;12.00;73.50;;;;;;4993995;28;20049;-58
2022/04/26 16:49:36;;;;;;;7.00;3.00;;;11.90;74.40;;;;;;5006248;28;20451;-60
2022/04/26 16:52:04;;;;;;;8.98;2.90;;;11.80;75.10;;;;;;5004669;28;20726;-64
2022/04/26 16:54:30;;;;;;;5.65;2.58;;;11.80;75.40;;;;;;4977644;28;20056;-57
2022/04/26 16:56:56;;;;;;;7.65;2.40;;;11.70;75.70;;;;;;5014222;28;20128;-60
2022/04/26 16:59:25;;;;;;;5.50;2.50;;;11.70;76.20;;;;;;5015121;28;20441;-57
2022/04/26 17:01:51;;;;;;;4.97;2.20;;;11.70;76.30;;;;;;5014253;28;20042;-60
2022/04/26 17:04:17;;;;;;;6.22;2.53;;;11.70;76.70;;;;;;5005971;28;20104;-58
2022/04/26 17:06:43;;;;;;;6.82;2.50;;;11.60;77.00;;;;;;5005752;28;20485;-62
2022/04/26 17:09:10;;;;;;;5.28;2.13;;;11.60;77.20;;;;;;5004297;28;20049;-59
2022/04/26 17:11:42;;;;;;;5.20;2.20;;;11.50;77.00;;;;;;5005884;28;20538;-59
2022/04/26 17:14:18;;;;;;;6.35;2.38;;;11.50;77.20;;;;;;4993367;28;20033;-59
2022/04/26 17:16:47;;;;;;;5.95;2.72;;;11.50;78.00;;;;;;5009053;28;20076;-62
2022/04/26 17:19:17;;;;;;;6.93;3.05;;;11.50;79.00;;;;;;5010635;28;20420;-58